Terminal Aerodrome Forecast
Issued by NWS Upton, NY

Home | Current Version | Previous Version | Text Only | Print | Product List | Glossary On
Versions: 1 2 3 4 5 6 7 8 9 10 11 12 13 14 15 16 17 18 19 20 21 22 23 24 25 26 27 28 29 30 31 32 33
000
FTUS41 KOKX 302328
TAFISP
TAF
KISP 302328Z 3100/3124 20017G23KT P6SM FEW040 SCT250
     FM310100 20013G20KT P6SM SCT250
     FM310300 20010KT P6SM SCT150 SCT250
     FM310700 20008KT 4SM BR SCT005
     FM310900 20008KT 2SM BR BKN005
     FM311500 20009KT 6SM HZ VCSH SCT010 BKN060
     FM312000 19008KT 4SM SHRA BKN040 PROB30 3120/3124 2SM TSRA
      BKN030CB=

USA.gov is the U.S. government's official web portal to all federal, state and local government web resources and services.